Portada
METAR-TAF:

METAR-TAF

Aeroports :

Koksijde, Bèlgica

latitud: 51-05N, longitud: 002-39E, altitud: 4 m

Observació

L'informe es va fer fa 30 minuts, a les 09:55 UTC
Vent 9 kt del Est
Temperatura 19°C
Humitat 49%
Pressió 1025 hPa
Visibilitat 10 km o més

METAR: EBFN 090955Z AUTO 09009KT 9999 NCD 19/08 Q1025 BLU

Hora: 12:25 (10:25 UTC)

Pronòstic

L'informe es va fer fa 1 hora i 44 minuts, a les 08:41 UTC
Pronòstic vàlid del 09 a les 10 UTC al 09 a les 19 UTC
Vent 10 kt del Nord-Est
Visibilitat 10 km o més
Escasses núvols a una alçada de 8000 ft
Núvols disperses a una alçada de 25000 ft

TAF: EBFN 090841Z 0910/0919 05010KT 9999 FEW080 SCT250

Observacions i pronòstics meteorològics de més de 4000 aeroports (METAR i TAF).

Les estacions disponibles són els punts grocs i vermells al mapa.

Posi el ratolí al punt desitjat per veure el nom de l'estació.

Feu clic per veure les observacions i els pronòstics meteorològics.

Per canviar el mapa: feu clic els botons verds amb una creu de color negre per apropar; al botó verd amb un guió per allunyar la imatge; o en les fletxes verdes per a mapes adjacents.


METAR-TAF: